sensor_id;sensor_type;location;lat;lon;timestamp;pressure;altitude;pressure_sealevel;temperature;humidity
8416;BME280;4245;42.120;24.732;2023-04-29T00:00:05;99468.41;;;12.19;82.02
8416;BME280;4245;42.120;24.732;2023-04-29T00:02:32;99471.78;;;12.22;81.22
8416;BME280;4245;42.120;24.732;2023-04-29T00:04:59;99475.28;;;11.98;85.25
8416;BME280;4245;42.120;24.732;2023-04-29T00:07:30;99477.34;;;11.82;86.29
8416;BME280;4245;42.120;24.732;2023-04-29T00:09:58;99476.91;;;11.88;86.16
8416;BME280;4245;42.120;24.732;2023-04-29T00:12:25;99481.41;;;12.35;85.43
8416;BME280;4245;42.120;24.732;2023-04-29T00:14:52;99475.94;;;12.60;83.07
8416;BME280;4245;42.120;24.732;2023-04-29T00:17:19;99470.81;;;12.46;81.15
8416;BME280;4245;42.120;24.732;2023-04-29T00:19:46;99468.94;;;12.36;83.66
8416;BME280;4245;42.120;24.732;2023-04-29T00:22:12;99473.06;;;11.92;87.87
8416;BME280;4245;42.120;24.732;2023-04-29T00:24:41;99476.81;;;11.64;83.68
8416;BME280;4245;42.120;24.732;2023-04-29T00:27:08;99473.59;;;11.72;89.37
8416;BME280;4245;42.120;24.732;2023-04-29T00:29:36;99467.53;;;12.43;83.50
8416;BME280;4245;42.120;24.732;2023-04-29T00:32:03;99477.34;;;13.23;82.75
8416;BME280;4245;42.120;24.732;2023-04-29T00:34:30;99467.41;;;13.92;75.46
8416;BME280;4245;42.120;24.732;2023-04-29T00:36:57;99478.94;;;13.37;73.53
8416;BME280;4245;42.120;24.732;2023-04-29T00:39:24;99475.28;;;13.27;77.50
8416;BME280;4245;42.120;24.732;2023-04-29T00:41:52;99478.31;;;13.22;79.83
8416;BME280;4245;42.120;24.732;2023-04-29T00:44:19;99478.06;;;12.68;79.00
8416;BME280;4245;42.120;24.732;2023-04-29T00:46:46;99483.53;;;13.24;78.18
8416;BME280;4245;42.120;24.732;2023-04-29T00:49:12;99484.94;;;13.05;77.07
8416;BME280;4245;42.120;24.732;2023-04-29T00:51:40;99482.97;;;12.61;81.54
8416;BME280;4245;42.120;24.732;2023-04-29T00:54:08;99477.25;;;12.55;85.40
8416;BME280;4245;42.120;24.732;2023-04-29T00:56:36;99476.97;;;11.99;80.45
8416;BME280;4245;42.120;24.732;2023-04-29T00:59:08;99473.94;;;12.75;84.03
8416;BME280;4245;42.120;24.732;2023-04-29T01:01:37;99476.19;;;13.03;79.08
8416;BME280;4245;42.120;24.732;2023-04-29T01:04:04;99482.00;;;12.97;81.19
8416;BME280;4245;42.120;24.732;2023-04-29T01:06:40;99482.53;;;12.79;78.36
8416;BME280;4245;42.120;24.732;2023-04-29T01:09:17;99480.41;;;12.49;84.95
8416;BME280;4245;42.120;24.732;2023-04-29T01:11:57;99482.63;;;13.01;80.87
8416;BME280;4245;42.120;24.732;2023-04-29T01:14:32;99482.50;;;12.33;82.85
8416;BME280;4245;42.120;24.732;2023-04-29T01:17:04;99474.19;;;12.01;85.24
8416;BME280;4245;42.120;24.732;2023-04-29T01:19:46;99485.72;;;12.84;79.72
8416;BME280;4245;42.120;24.732;2023-04-29T01:22:15;99480.00;;;12.77;80.27
8416;BME280;4245;42.120;24.732;2023-04-29T01:24:44;99469.59;;;11.79;79.81
8416;BME280;4245;42.120;24.732;2023-04-29T01:27:19;99474.06;;;11.79;81.40
8416;BME280;4245;42.120;24.732;2023-04-29T01:29:53;99470.88;;;11.73;91.59
8416;BME280;4245;42.120;24.732;2023-04-29T01:32:31;99466.78;;;11.93;81.40
8416;BME280;4245;42.120;24.732;2023-04-29T01:35:04;99464.75;;;12.20;82.86
8416;BME280;4245;42.120;24.732;2023-04-29T01:37:40;99465.31;;;12.13;81.21
8416;BME280;4245;42.120;24.732;2023-04-29T01:40:15;99462.09;;;11.71;83.89
8416;BME280;4245;42.120;24.732;2023-04-29T01:42:47;99456.19;;;11.43;84.56
8416;BME280;4245;42.120;24.732;2023-04-29T01:45:17;99454.75;;;11.13;87.43
8416;BME280;4245;42.120;24.732;2023-04-29T01:47:46;99455.59;;;10.88;86.88
8416;BME280;4245;42.120;24.732;2023-04-29T01:50:13;99455.38;;;11.04;95.75
8416;BME280;4245;42.120;24.732;2023-04-29T01:52:40;99453.13;;;11.98;86.34
8416;BME280;4245;42.120;24.732;2023-04-29T01:55:07;99451.97;;;11.15;88.19
8416;BME280;4245;42.120;24.732;2023-04-29T01:57:36;99452.78;;;11.53;91.20
8416;BME280;4245;42.120;24.732;2023-04-29T02:00:04;99451.97;;;11.15;85.20
8416;BME280;4245;42.120;24.732;2023-04-29T02:02:31;99450.28;;;11.01;89.13
8416;BME280;4245;42.120;24.732;2023-04-29T02:04:58;99452.81;;;11.41;90.34
8416;BME280;4245;42.120;24.732;2023-04-29T02:07:24;99451.13;;;11.27;83.68
8416;BME280;4245;42.120;24.732;2023-04-29T02:09:51;99451.56;;;12.19;81.19
8416;BME280;4245;42.120;24.732;2023-04-29T02:12:18;99449.34;;;12.37;82.79
8416;BME280;4245;42.120;24.732;2023-04-29T02:14:46;99451.56;;;11.21;85.33
8416;BME280;4245;42.120;24.732;2023-04-29T02:17:13;99450.41;;;11.12;88.35
8416;BME280;4245;42.120;24.732;2023-04-29T02:19:40;99454.09;;;11.35;91.05
8416;BME280;4245;42.120;24.732;2023-04-29T02:22:06;99455.88;;;11.96;84.10
8416;BME280;4245;42.120;24.732;2023-04-29T02:24:35;99454.59;;;11.65;81.72
8416;BME280;4245;42.120;24.732;2023-04-29T02:27:02;99457.09;;;11.05;86.81
8416;BME280;4245;42.120;24.732;2023-04-29T02:32:25;99449.84;;;10.82;90.75
8416;BME280;4245;42.120;24.732;2023-04-29T02:34:52;99443.84;;;10.53;88.22
8416;BME280;4245;42.120;24.732;2023-04-29T02:37:19;99442.31;;;10.36;93.68
8416;BME280;4245;42.120;24.732;2023-04-29T02:39:45;99442.06;;;10.54;92.23
8416;BME280;4245;42.120;24.732;2023-04-29T02:42:12;99445.31;;;10.44;89.76
8416;BME280;4245;42.120;24.732;2023-04-29T02:44:39;99440.97;;;10.17;93.95
8416;BME280;4245;42.120;24.732;2023-04-29T02:47:06;99437.69;;;9.99;93.75
8416;BME280;4245;42.120;24.732;2023-04-29T02:49:35;99443.41;;;10.46;98.83
8416;BME280;4245;42.120;24.732;2023-04-29T02:52:01;99444.75;;;10.79;95.78
8416;BME280;4245;42.120;24.732;2023-04-29T02:54:29;99449.25;;;10.52;90.67
8416;BME280;4245;42.120;24.732;2023-04-29T02:56:56;99448.16;;;10.15;89.86
8416;BME280;4245;42.120;24.732;2023-04-29T02:59:23;99449.41;;;10.75;89.30
8416;BME280;4245;42.120;24.732;2023-04-29T03:01:50;99461.75;;;10.76;89.85
8416;BME280;4245;42.120;24.732;2023-04-29T03:04:18;99452.59;;;11.56;87.34
8416;BME280;4245;42.120;24.732;2023-04-29T03:06:46;99451.28;;;10.61;87.37
8416;BME280;4245;42.120;24.732;2023-04-29T03:09:13;99445.91;;;10.09;89.53
8416;BME280;4245;42.120;24.732;2023-04-29T03:11:40;99450.97;;;9.99;97.52
8416;BME280;4245;42.120;24.732;2023-04-29T03:14:07;99461.75;;;10.10;94.82
8416;BME280;4245;42.120;24.732;2023-04-29T03:16:34;99461.09;;;10.85;93.75
8416;BME280;4245;42.120;24.732;2023-04-29T03:19:00;99460.78;;;11.41;87.69
8416;BME280;4245;42.120;24.732;2023-04-29T03:21:27;99464.63;;;11.98;84.59
8416;BME280;4245;42.120;24.732;2023-04-29T03:23:55;99465.25;;;12.26;81.23
8416;BME280;4245;42.120;24.732;2023-04-29T03:26:22;99464.69;;;12.09;80.97
8416;BME280;4245;42.120;24.732;2023-04-29T03:28:50;99474.91;;;11.79;82.35
8416;BME280;4245;42.120;24.732;2023-04-29T03:31:17;99473.09;;;11.80;82.03
8416;BME280;4245;42.120;24.732;2023-04-29T03:33:45;99479.00;;;12.67;80.11
8416;BME280;4245;42.120;24.732;2023-04-29T03:36:12;99476.50;;;13.34;76.03
8416;BME280;4245;42.120;24.732;2023-04-29T03:38:39;99479.78;;;13.15;76.01
8416;BME280;4245;42.120;24.732;2023-04-29T03:41:07;99479.16;;;12.77;78.89
8416;BME280;4245;42.120;24.732;2023-04-29T03:43:34;99486.78;;;12.46;75.99
8416;BME280;4245;42.120;24.732;2023-04-29T03:46:01;99477.69;;;12.01;79.38
8416;BME280;4245;42.120;24.732;2023-04-29T03:48:28;99481.50;;;11.73;84.34
8416;BME280;4245;42.120;24.732;2023-04-29T03:50:54;99493.16;;;12.91;81.84
8416;BME280;4245;42.120;24.732;2023-04-29T03:53:21;99500.16;;;13.16;76.27
8416;BME280;4245;42.120;24.732;2023-04-29T03:55:48;99493.19;;;12.68;73.99
8416;BME280;4245;42.120;24.732;2023-04-29T03:58:17;99501.97;;;12.57;76.83
8416;BME280;4245;42.120;24.732;2023-04-29T04:00:43;99499.09;;;11.51;79.67
8416;BME280;4245;42.120;24.732;2023-04-29T04:03:10;99501.53;;;11.16;82.01
8416;BME280;4245;42.120;24.732;2023-04-29T04:05:37;99496.94;;;10.93;84.31
8416;BME280;4245;42.120;24.732;2023-04-29T04:08:04;99501.81;;;10.73;84.33
8416;BME280;4245;42.120;24.732;2023-04-29T04:10:31;99506.41;;;11.09;86.54
8416;BME280;4245;42.120;24.732;2023-04-29T04:12:58;99500.72;;;12.02;79.51
8416;BME280;4245;42.120;24.732;2023-04-29T04:15:26;99506.41;;;11.85;80.11
8416;BME280;4245;42.120;24.732;2023-04-29T04:17:53;99497.81;;;11.31;79.68
8416;BME280;4245;42.120;24.732;2023-04-29T04:20:19;99505.69;;;11.07;82.33
8416;BME280;4245;42.120;24.732;2023-04-29T04:22:46;99504.47;;;10.73;84.07
8416;BME280;4245;42.120;24.732;2023-04-29T04:25:13;99501.09;;;10.97;87.73
8416;BME280;4245;42.120;24.732;2023-04-29T04:27:40;99507.50;;;11.32;85.26
8416;BME280;4245;42.120;24.732;2023-04-29T04:30:08;99506.31;;;11.11;80.09
8416;BME280;4245;42.120;24.732;2023-04-29T04:32:36;99500.03;;;10.47;86.73
8416;BME280;4245;42.120;24.732;2023-04-29T04:35:04;99501.69;;;10.75;83.92
8416;BME280;4245;42.120;24.732;2023-04-29T04:37:31;99490.00;;;10.77;84.63
8416;BME280;4245;42.120;24.732;2023-04-29T04:39:58;99493.44;;;11.55;87.35
8416;BME280;4245;42.120;24.732;2023-04-29T04:42:24;99502.00;;;11.97;79.44
8416;BME280;4245;42.120;24.732;2023-04-29T04:44:52;99497.88;;;11.67;81.56
8416;BME280;4245;42.120;24.732;2023-04-29T04:47:19;99498.88;;;11.16;82.58
8416;BME280;4245;42.120;24.732;2023-04-29T04:49:47;99513.34;;;11.12;86.88
8416;BME280;4245;42.120;24.732;2023-04-29T04:52:19;99511.94;;;11.82;83.54
8416;BME280;4245;42.120;24.732;2023-04-29T04:54:46;99514.41;;;11.85;77.73
8416;BME280;4245;42.120;24.732;2023-04-29T04:57:13;99519.94;;;11.57;79.73
8416;BME280;4245;42.120;24.732;2023-04-29T04:59:40;99519.66;;;10.71;82.23
8416;BME280;4245;42.120;24.732;2023-04-29T05:02:07;99520.66;;;10.96;85.40
8416;BME280;4245;42.120;24.732;2023-04-29T05:04:34;99523.91;;;10.74;85.74
8416;BME280;4245;42.120;24.732;2023-04-29T05:07:02;99525.47;;;11.16;89.06
8416;BME280;4245;42.120;24.732;2023-04-29T05:09:29;99524.28;;;11.83;80.05
8416;BME280;4245;42.120;24.732;2023-04-29T05:11:56;99528.00;;;11.93;80.79
8416;BME280;4245;42.120;24.732;2023-04-29T05:14:24;99531.63;;;11.67;78.94
8416;BME280;4245;42.120;24.732;2023-04-29T05:16:50;99522.81;;;12.15;77.84
8416;BME280;4245;42.120;24.732;2023-04-29T05:19:17;99531.53;;;11.43;76.01
8416;BME280;4245;42.120;24.732;2023-04-29T05:21:44;99517.13;;;10.82;80.02
8416;BME280;4245;42.120;24.732;2023-04-29T05:24:12;99524.28;;;10.55;82.60
8416;BME280;4245;42.120;24.732;2023-04-29T05:26:39;99525.69;;;10.34;84.21
8416;BME280;4245;42.120;24.732;2023-04-29T05:29:08;99514.81;;;10.24;86.56
8416;BME280;4245;42.120;24.732;2023-04-29T05:31:34;99506.41;;;10.44;85.25
8416;BME280;4245;42.120;24.732;2023-04-29T05:34:01;99502.75;;;10.33;85.99
8416;BME280;4245;42.120;24.732;2023-04-29T05:36:28;99499.03;;;10.35;86.00
8416;BME280;4245;42.120;24.732;2023-04-29T05:38:55;99497.06;;;10.52;86.40
8416;BME280;4245;42.120;24.732;2023-04-29T05:41:23;99490.72;;;10.67;83.59
8416;BME280;4245;42.120;24.732;2023-04-29T05:43:50;99486.19;;;10.81;83.24
8416;BME280;4245;42.120;24.732;2023-04-29T05:46:17;99498.75;;;10.92;81.80
8416;BME280;4245;42.120;24.732;2023-04-29T05:48:44;99489.72;;;11.20;81.01
8416;BME280;4245;42.120;24.732;2023-04-29T05:51:12;99490.25;;;11.50;79.41
8416;BME280;4245;42.120;24.732;2023-04-29T05:53:39;99484.94;;;11.75;78.12
8416;BME280;4245;42.120;24.732;2023-04-29T05:56:06;99483.84;;;12.14;75.33
8416;BME280;4245;42.120;24.732;2023-04-29T05:58:34;99486.25;;;12.65;72.60
8416;BME280;4245;42.120;24.732;2023-04-29T06:01:01;99493.31;;;13.12;69.20
8416;BME280;4245;42.120;24.732;2023-04-29T06:03:27;99491.06;;;13.52;67.98
8416;BME280;4245;42.120;24.732;2023-04-29T06:05:55;99492.75;;;13.86;65.17
8416;BME280;4245;42.120;24.732;2023-04-29T06:08:23;99477.91;;;14.05;64.01
8416;BME280;4245;42.120;24.732;2023-04-29T06:10:49;99479.72;;;14.26;62.00
8416;BME280;4245;42.120;24.732;2023-04-29T06:13:17;99480.41;;;14.40;62.30
8416;BME280;4245;42.120;24.732;2023-04-29T06:15:45;99483.94;;;14.93;60.36
8416;BME280;4245;42.120;24.732;2023-04-29T06:18:12;99470.97;;;15.09;58.80
8416;BME280;4245;42.120;24.732;2023-04-29T06:20:39;99464.31;;;15.24;58.22
8416;BME280;4245;42.120;24.732;2023-04-29T06:23:05;99466.19;;;15.33;56.03
8416;BME280;4245;42.120;24.732;2023-04-29T06:25:33;99469.44;;;15.57;55.72
8416;BME280;4245;42.120;24.732;2023-04-29T06:27:59;99466.88;;;15.56;54.69
8416;BME280;4245;42.120;24.732;2023-04-29T06:30:26;99476.38;;;15.18;56.14
8416;BME280;4245;42.120;24.732;2023-04-29T06:32:54;99465.81;;;14.96;55.42
8416;BME280;4245;42.120;24.732;2023-04-29T06:35:21;99471.88;;;15.49;55.11
8416;BME280;4245;42.120;24.732;2023-04-29T06:37:48;99471.66;;;15.52;54.31
8416;BME280;4245;42.120;24.732;2023-04-29T06:40:15;99466.75;;;15.57;53.31
8416;BME280;4245;42.120;24.732;2023-04-29T06:42:42;99462.97;;;15.70;53.07
8416;BME280;4245;42.120;24.732;2023-04-29T06:47:36;99465.28;;;15.84;54.37
8416;BME280;4245;42.120;24.732;2023-04-29T06:50:05;99464.44;;;15.83;55.26
8416;BME280;4245;42.120;24.732;2023-04-29T06:52:34;99457.88;;;15.97;53.64
8416;BME280;4245;42.120;24.732;2023-04-29T06:55:01;99454.78;;;16.11;52.95
8416;BME280;4245;42.120;24.732;2023-04-29T06:57:28;99451.25;;;16.01;52.90
8416;BME280;4245;42.120;24.732;2023-04-29T06:59:56;99451.09;;;16.02;52.76
8416;BME280;4245;42.120;24.732;2023-04-29T07:02:23;99449.88;;;16.26;52.78
8416;BME280;4245;42.120;24.732;2023-04-29T07:04:50;99441.84;;;16.16;52.94
8416;BME280;4245;42.120;24.732;2023-04-29T07:07:18;99440.75;;;16.67;50.95
8416;BME280;4245;42.120;24.732;2023-04-29T07:09:45;99435.34;;;16.95;49.71
8416;BME280;4245;42.120;24.732;2023-04-29T07:12:13;99438.06;;;17.42;48.36
8416;BME280;4245;42.120;24.732;2023-04-29T07:14:39;99437.41;;;17.58;47.87
8416;BME280;4245;42.120;24.732;2023-04-29T07:17:06;99434.78;;;17.38;47.79
8416;BME280;4245;42.120;24.732;2023-04-29T07:19:33;99428.13;;;17.62;47.50
8416;BME280;4245;42.120;24.732;2023-04-29T07:22:00;99429.28;;;18.40;45.94
8416;BME280;4245;42.120;24.732;2023-04-29T07:24:29;99432.63;;;18.87;44.12
8416;BME280;4245;42.120;24.732;2023-04-29T07:26:56;99437.34;;;19.36;43.35
8416;BME280;4245;42.120;24.732;2023-04-29T07:29:23;99436.13;;;19.57;42.14
8416;BME280;4245;42.120;24.732;2023-04-29T07:31:50;99429.19;;;19.88;40.97
8416;BME280;4245;42.120;24.732;2023-04-29T07:34:16;99438.34;;;20.03;41.02
8416;BME280;4245;42.120;24.732;2023-04-29T07:36:43;99434.06;;;20.34;39.83
8416;BME280;4245;42.120;24.732;2023-04-29T07:39:10;99435.63;;;20.86;38.05
8416;BME280;4245;42.120;24.732;2023-04-29T07:41:41;99444.41;;;20.79;37.92
8416;BME280;4245;42.120;24.732;2023-04-29T07:44:08;99436.94;;;20.49;38.44
8416;BME280;4245;42.120;24.732;2023-04-29T07:46:34;99434.81;;;20.11;38.79
8416;BME280;4245;42.120;24.732;2023-04-29T07:49:02;99433.34;;;20.24;40.97
8416;BME280;4245;42.120;24.732;2023-04-29T07:51:29;99432.59;;;20.64;40.66
8416;BME280;4245;42.120;24.732;2023-04-29T07:53:56;99430.06;;;20.79;45.71
8416;BME280;4245;42.120;24.732;2023-04-29T07:56:23;99423.13;;;21.17;44.55
8416;BME280;4245;42.120;24.732;2023-04-29T07:58:51;99422.78;;;21.75;36.95
8416;BME280;4245;42.120;24.732;2023-04-29T08:01:18;99415.97;;;21.95;42.36
8416;BME280;4245;42.120;24.732;2023-04-29T08:03:45;99425.34;;;21.77;41.35
8416;BME280;4245;42.120;24.732;2023-04-29T08:06:12;99414.78;;;21.90;42.09
8416;BME280;4245;42.120;24.732;2023-04-29T08:08:39;99413.22;;;22.34;36.86
8416;BME280;4245;42.120;24.732;2023-04-29T08:11:05;99409.41;;;22.21;38.91
8416;BME280;4245;42.120;24.732;2023-04-29T08:13:32;99403.84;;;22.45;39.20
8416;BME280;4245;42.120;24.732;2023-04-29T08:16:00;99408.34;;;22.52;41.00
8416;BME280;4245;42.120;24.732;2023-04-29T08:18:27;99405.03;;;22.88;34.16
8416;BME280;4245;42.120;24.732;2023-04-29T08:20:54;99407.25;;;23.22;35.19
8416;BME280;4245;42.120;24.732;2023-04-29T08:23:21;99402.78;;;23.44;36.19
8416;BME280;4245;42.120;24.732;2023-04-29T08:25:47;99400.28;;;23.71;34.49
8416;BME280;4245;42.120;24.732;2023-04-29T08:28:16;99394.56;;;23.81;35.03
8416;BME280;4245;42.120;24.732;2023-04-29T08:30:43;99395.34;;;24.11;31.97
8416;BME280;4245;42.120;24.732;2023-04-29T08:33:11;99389.06;;;23.45;35.27
8416;BME280;4245;42.120;24.732;2023-04-29T08:35:39;99389.06;;;23.60;35.80
8416;BME280;4245;42.120;24.732;2023-04-29T08:38:07;99393.00;;;24.22;32.13
8416;BME280;4245;42.120;24.732;2023-04-29T08:40:34;99390.22;;;24.37;31.19
8416;BME280;4245;42.120;24.732;2023-04-29T08:43:02;99393.94;;;24.30;31.86
8416;BME280;4245;42.120;24.732;2023-04-29T08:45:30;99389.97;;;23.96;31.02
8416;BME280;4245;42.120;24.732;2023-04-29T08:48:00;99382.06;;;23.51;31.51
8416;BME280;4245;42.120;24.732;2023-04-29T08:50:29;99387.31;;;23.52;31.77
8416;BME280;4245;42.120;24.732;2023-04-29T08:52:57;99382.91;;;23.51;32.04
8416;BME280;4245;42.120;24.732;2023-04-29T08:55:23;99366.22;;;23.10;35.69
8416;BME280;4245;42.120;24.732;2023-04-29T08:57:53;99361.22;;;23.51;35.29
8416;BME280;4245;42.120;24.732;2023-04-29T09:00:21;99367.09;;;24.05;35.72
8416;BME280;4245;42.120;24.732;2023-04-29T09:02:50;99375.94;;;24.50;31.17
8416;BME280;4245;42.120;24.732;2023-04-29T09:05:17;99368.00;;;24.27;33.38
8416;BME280;4245;42.120;24.732;2023-04-29T09:07:45;99365.66;;;24.66;31.00
8416;BME280;4245;42.120;24.732;2023-04-29T09:10:13;99369.38;;;25.42;30.24
8416;BME280;4245;42.120;24.732;2023-04-29T09:12:41;99358.25;;;25.65;33.55
8416;BME280;4245;42.120;24.732;2023-04-29T09:15:09;99359.47;;;26.17;28.91
8416;BME280;4245;42.120;24.732;2023-04-29T09:17:40;99358.25;;;26.26;30.98
8416;BME280;4245;42.120;24.732;2023-04-29T09:20:28;99350.56;;;26.43;29.28
8416;BME280;4245;42.120;24.732;2023-04-29T09:22:58;99347.22;;;26.60;31.92
8416;BME280;4245;42.120;24.732;2023-04-29T09:25:25;99344.69;;;26.52;30.70
8416;BME280;4245;42.120;24.732;2023-04-29T09:27:53;99345.94;;;26.69;28.44
8416;BME280;4245;42.120;24.732;2023-04-29T09:30:20;99341.97;;;26.85;28.64
8416;BME280;4245;42.120;24.732;2023-04-29T09:33:03;99331.47;;;26.69;30.62
8416;BME280;4245;42.120;24.732;2023-04-29T09:35:31;99329.59;;;27.02;27.68
8416;BME280;4245;42.120;24.732;2023-04-29T09:38:14;99321.00;;;26.99;27.85
8416;BME280;4245;42.120;24.732;2023-04-29T09:40:42;99316.69;;;27.55;28.99
8416;BME280;4245;42.120;24.732;2023-04-29T09:43:13;99318.78;;;28.11;25.98
8416;BME280;4245;42.120;24.732;2023-04-29T09:45:42;99317.81;;;27.35;27.27
8416;BME280;4245;42.120;24.732;2023-04-29T09:48:10;99309.72;;;27.73;26.21
8416;BME280;4245;42.120;24.732;2023-04-29T09:50:38;99302.09;;;28.19;25.34
8416;BME280;4245;42.120;24.732;2023-04-29T09:53:06;99309.28;;;28.45;25.16
8416;BME280;4245;42.120;24.732;2023-04-29T09:55:35;99307.63;;;28.69;24.16
8416;BME280;4245;42.120;24.732;2023-04-29T09:58:02;99306.34;;;28.46;24.13
8416;BME280;4245;42.120;24.732;2023-04-29T10:00:30;99298.97;;;28.47;23.27
8416;BME280;4245;42.120;24.732;2023-04-29T10:02:59;99290.34;;;28.19;22.49
8416;BME280;4245;42.120;24.732;2023-04-29T10:05:27;99298.25;;;27.95;22.88
8416;BME280;4245;42.120;24.732;2023-04-29T10:07:57;99285.56;;;28.07;23.20
8416;BME280;4245;42.120;24.732;2023-04-29T10:10:26;99278.41;;;28.13;22.78
8416;BME280;4245;42.120;24.732;2023-04-29T10:12:55;99284.13;;;27.60;23.52
8416;BME280;4245;42.120;24.732;2023-04-29T10:15:28;99274.41;;;27.78;23.71
8416;BME280;4245;42.120;24.732;2023-04-29T10:17:59;99273.53;;;27.26;24.14
8416;BME280;4245;42.120;24.732;2023-04-29T10:20:28;99265.28;;;27.52;24.15
8416;BME280;4245;42.120;24.732;2023-04-29T10:22:55;99271.97;;;27.94;23.02
8416;BME280;4245;42.120;24.732;2023-04-29T10:25:25;99266.88;;;28.11;22.63
8416;BME280;4245;42.120;24.732;2023-04-29T10:27:55;99263.22;;;27.86;21.85
8416;BME280;4245;42.120;24.732;2023-04-29T10:30:23;99261.00;;;27.70;22.29
8416;BME280;4245;42.120;24.732;2023-04-29T10:32:50;99266.94;;;27.98;22.67
8416;BME280;4245;42.120;24.732;2023-04-29T10:35:18;99253.91;;;26.78;26.08
8416;BME280;4245;42.120;24.732;2023-04-29T10:37:48;99257.03;;;27.65;22.51
8416;BME280;4245;42.120;24.732;2023-04-29T10:40:17;99263.03;;;28.19;22.04
8416;BME280;4245;42.120;24.732;2023-04-29T10:42:47;99257.91;;;27.97;21.36
8416;BME280;4245;42.120;24.732;2023-04-29T10:45:23;99257.91;;;28.29;21.15
8416;BME280;4245;42.120;24.732;2023-04-29T10:48:11;99248.00;;;28.59;21.68
8416;BME280;4245;42.120;24.732;2023-04-29T10:50:59;99250.53;;;29.22;21.30
8416;BME280;4245;42.120;24.732;2023-04-29T10:53:27;99248.84;;;29.03;21.08
8416;BME280;4245;42.120;24.732;2023-04-29T10:55:57;99249.06;;;29.01;21.14
8416;BME280;4245;42.120;24.732;2023-04-29T10:58:42;99236.03;;;29.69;20.77
8416;BME280;4245;42.120;24.732;2023-04-29T11:01:12;99230.59;;;30.52;20.04
8416;BME280;4245;42.120;24.732;2023-04-29T11:03:52;99229.53;;;31.12;19.76
8416;BME280;4245;42.120;24.732;2023-04-29T11:06:39;99229.63;;;30.93;19.20
8416;BME280;4245;42.120;24.732;2023-04-29T11:09:12;99228.69;;;30.11;20.38
8416;BME280;4245;42.120;24.732;2023-04-29T11:11:42;99209.69;;;29.57;20.52
8416;BME280;4245;42.120;24.732;2023-04-29T11:14:11;99206.81;;;29.52;20.71
8416;BME280;4245;42.120;24.732;2023-04-29T11:16:47;99210.56;;;29.03;20.49
8416;BME280;4245;42.120;24.732;2023-04-29T11:19:16;99202.13;;;27.80;21.67
8416;BME280;4245;42.120;24.732;2023-04-29T11:21:44;99203.50;;;27.96;20.99
8416;BME280;4245;42.120;24.732;2023-04-29T11:24:11;99196.19;;;27.07;22.18
8416;BME280;4245;42.120;24.732;2023-04-29T11:26:40;99190.25;;;27.23;21.09
8416;BME280;4245;42.120;24.732;2023-04-29T11:29:07;99177.75;;;27.85;20.77
8416;BME280;4245;42.120;24.732;2023-04-29T11:31:35;99173.66;;;28.01;21.23
8416;BME280;4245;42.120;24.732;2023-04-29T11:34:05;99176.28;;;28.82;20.78
8416;BME280;4245;42.120;24.732;2023-04-29T11:36:32;99173.06;;;29.40;19.98
8416;BME280;4245;42.120;24.732;2023-04-29T11:39:00;99176.56;;;29.76;19.93
8416;BME280;4245;42.120;24.732;2023-04-29T11:41:27;99175.34;;;29.24;20.23
8416;BME280;4245;42.120;24.732;2023-04-29T11:43:54;99163.34;;;29.25;19.86
8416;BME280;4245;42.120;24.732;2023-04-29T11:46:22;99169.63;;;29.62;19.61
8416;BME280;4245;42.120;24.732;2023-04-29T11:48:49;99170.63;;;29.50;19.80
8416;BME280;4245;42.120;24.732;2023-04-29T11:51:18;99172.06;;;29.82;19.98
8416;BME280;4245;42.120;24.732;2023-04-29T11:53:45;99155.09;;;30.27;20.36
8416;BME280;4245;42.120;24.732;2023-04-29T11:56:12;99164.19;;;30.50;18.69
8416;BME280;4245;42.120;24.732;2023-04-29T11:58:41;99164.38;;;30.02;18.81
8416;BME280;4245;42.120;24.732;2023-04-29T12:01:08;99145.81;;;28.60;19.99
8416;BME280;4245;42.120;24.732;2023-04-29T12:03:35;99146.69;;;28.36;20.86
8416;BME280;4245;42.120;24.732;2023-04-29T12:06:02;99142.50;;;28.76;20.31
8416;BME280;4245;42.120;24.732;2023-04-29T12:08:30;99131.56;;;28.94;20.93
8416;BME280;4245;42.120;24.732;2023-04-29T12:10:59;99131.84;;;29.53;19.53
8416;BME280;4245;42.120;24.732;2023-04-29T12:13:28;99125.28;;;29.06;20.45
8416;BME280;4245;42.120;24.732;2023-04-29T12:15:55;99120.44;;;28.35;20.53
8416;BME280;4245;42.120;24.732;2023-04-29T12:18:23;99117.56;;;27.42;22.91
8416;BME280;4245;42.120;24.732;2023-04-29T12:20:52;99111.84;;;27.12;22.97
8416;BME280;4245;42.120;24.732;2023-04-29T12:23:21;99110.56;;;27.84;21.38
8416;BME280;4245;42.120;24.732;2023-04-29T12:25:50;99106.00;;;28.03;22.56
8416;BME280;4245;42.120;24.732;2023-04-29T12:28:18;99106.28;;;27.95;22.05
8416;BME280;4245;42.120;24.732;2023-04-29T12:30:46;99107.28;;;27.76;22.00
8416;BME280;4245;42.120;24.732;2023-04-29T12:33:17;99100.25;;;27.23;22.41
8416;BME280;4245;42.120;24.732;2023-04-29T12:35:44;99092.22;;;26.26;23.78
8416;BME280;4245;42.120;24.732;2023-04-29T12:38:10;99097.47;;;26.02;23.81
8416;BME280;4245;42.120;24.732;2023-04-29T12:40:41;99081.75;;;26.10;23.31
8416;BME280;4245;42.120;24.732;2023-04-29T12:43:09;99092.84;;;26.15;23.23
8416;BME280;4245;42.120;24.732;2023-04-29T12:45:37;99091.72;;;25.18;24.27
8416;BME280;4245;42.120;24.732;2023-04-29T12:48:05;99079.06;;;25.58;24.75
8416;BME280;4245;42.120;24.732;2023-04-29T12:50:33;99073.56;;;26.10;23.67
8416;BME280;4245;42.120;24.732;2023-04-29T12:53:01;99073.72;;;26.55;23.17
8416;BME280;4245;42.120;24.732;2023-04-29T12:55:31;99073.44;;;26.69;22.39
8416;BME280;4245;42.120;24.732;2023-04-29T12:57:58;99066.00;;;26.38;23.14
8416;BME280;4245;42.120;24.732;2023-04-29T13:00:27;99064.50;;;26.56;22.68
8416;BME280;4245;42.120;24.732;2023-04-29T13:02:53;99070.06;;;25.77;23.51
8416;BME280;4245;42.120;24.732;2023-04-29T13:05:20;99070.41;;;24.67;24.33
8416;BME280;4245;42.120;24.732;2023-04-29T13:07:48;99066.72;;;24.34;24.08
8416;BME280;4245;42.120;24.732;2023-04-29T13:10:14;99052.56;;;24.10;25.21
8416;BME280;4245;42.120;24.732;2023-04-29T13:12:42;99053.13;;;24.34;25.86
8416;BME280;4245;42.120;24.732;2023-04-29T13:15:09;99053.19;;;24.88;25.01
8416;BME280;4245;42.120;24.732;2023-04-29T13:17:37;99036.53;;;25.17;24.75
8416;BME280;4245;42.120;24.732;2023-04-29T13:20:06;99049.31;;;25.49;24.00